BAW880 EGCC-LCLK
Flight info
| Callsign | BAW880 |
|---|---|
| Flight time | N/A |
| Altitude | 23000 |
| Route | LISTO L612 HON/N0488F410 L15 BIG UL9 KONAN DCT KOK UL607 FERDI DCT REMBA DCT RITAX DCT BANUX DCT VEKIR DCT LATLO DCT OBEDI DCT BABOL DCT ELGEB DCT SOSEK DCT NISVA DCT VIT DCT RODIP UN131 PIBOM DCT BELGI UN131 KULAR UT39 TOMBI DCT DASNI M601 BONEK |
| Aircraft | A359/H-SDE2E3GHIJ3J4J5LM1ORWXY/LB1D1 |
Departure
| Time | 2026-05-06 08:53 |
|---|---|
| Airport | Manchester Airport (EGCC) |
Arrival
| Time | N/A |
|---|---|
| Airport | Larnaca International Airport (LCLK) |
| Time | Latitude | Longitude | Altitude | Speed | Heading |
|---|---|---|---|---|---|
| 2026-05-06 08:39 | 53.35823 | -2.27566 | 261 ft | 0 kts | 96° |
| 2026-05-06 08:44 | 53.35824 | -2.27587 | 264 ft | 4 kts | 96° |
| 2026-05-06 08:44 | 53.35828 | -2.27625 | 267 ft | 4 kts | 139° |
| 2026-05-06 08:44 | 53.35851 | -2.27638 | 267 ft | 3 kts | 184° |
| 2026-05-06 08:44 | 53.35872 | -2.27635 | 262 ft | 4 kts | 185° |
| 2026-05-06 08:45 | 53.35889 | -2.27632 | 263 ft | 0 kts | 185° |
| 2026-05-06 08:48 | 53.35880 | -2.27633 | 265 ft | 7 kts | 185° |
| 2026-05-06 08:48 | 53.35788 | -2.27647 | 259 ft | 18 kts | 186° |
| 2026-05-06 08:48 | 53.35677 | -2.27793 | 250 ft | 24 kts | 231° |
| 2026-05-06 08:48 | 53.35562 | -2.28031 | 242 ft | 29 kts | 230° |
| 2026-05-06 08:49 | 53.35383 | -2.28168 | 242 ft | 29 kts | 189° |
| 2026-05-06 08:49 | 53.35214 | -2.28337 | 238 ft | 25 kts | 230° |
| 2026-05-06 08:49 | 53.35098 | -2.28577 | 240 ft | 28 kts | 231° |
| 2026-05-06 08:49 | 53.34965 | -2.28828 | 237 ft | 30 kts | 226° |
| 2026-05-06 08:50 | 53.34847 | -2.29033 | 225 ft | 8 kts | 219° |
| 2026-05-06 08:50 | 53.34821 | -2.29056 | 226 ft | 0 kts | 204° |
| 2026-05-06 08:50 | 53.34780 | -2.29161 | 227 ft | 21 kts | 236° |
| 2026-05-06 08:50 | 53.34689 | -2.29319 | 224 ft | 3 kts | 204° |
| 2026-05-06 08:51 | 53.34686 | -2.29321 | 224 ft | 0 kts | 202° |
| 2026-05-06 08:51 | 53.34642 | -2.29343 | 223 ft | 22 kts | 189° |
| 2026-05-06 08:51 | 53.34545 | -2.29225 | 226 ft | 1 kts | 76° |
| 2026-05-06 08:52 | 53.34572 | -2.29156 | 227 ft | 14 kts | 51° |
| 2026-05-06 08:52 | 53.34637 | -2.29021 | 229 ft | 14 kts | 51° |
| 2026-05-06 08:52 | 53.34694 | -2.28898 | 227 ft | 13 kts | 51° |
| 2026-05-06 08:52 | 53.34808 | -2.28665 | 241 ft | 55 kts | 51° |
| 2026-05-06 08:53 | 53.35198 | -2.27859 | 243 ft | 121 kts | 51° |
| 2026-05-06 08:53 | 53.35828 | -2.26577 | 422 ft | 159 kts | 51° |
| 2026-05-06 08:53 | 53.36610 | -2.25023 | 919 ft | 186 kts | 50° |
| 2026-05-06 08:53 | 53.37283 | -2.23100 | 1666 ft | 202 kts | 76° |
| 2026-05-06 08:54 | 53.37077 | -2.20685 | 2167 ft | 230 kts | 116° |
| 2026-05-06 08:54 | 53.35997 | -2.18598 | 2926 ft | 245 kts | 138° |
| 2026-05-06 08:54 | 53.34485 | -2.17175 | 3739 ft | 257 kts | 156° |
| 2026-05-06 08:54 | 53.32672 | -2.16707 | 4464 ft | 271 kts | 181° |
| 2026-05-06 08:55 | 53.30777 | -2.17028 | 5320 ft | 276 kts | 188° |
| 2026-05-06 08:55 | 53.28853 | -2.17445 | 6213 ft | 281 kts | 188° |
| 2026-05-06 08:55 | 53.26903 | -2.17832 | 7153 ft | 283 kts | 187° |
| 2026-05-06 08:55 | 53.24960 | -2.18185 | 8080 ft | 286 kts | 187° |
| 2026-05-06 08:56 | 53.22964 | -2.18522 | 9026 ft | 289 kts | 187° |
| 2026-05-06 08:56 | 53.20950 | -2.18851 | 9997 ft | 293 kts | 187° |
| 2026-05-06 08:56 | 53.18880 | -2.19186 | 10626 ft | 308 kts | 187° |
| 2026-05-06 08:56 | 53.16668 | -2.19543 | 10972 ft | 331 kts | 187° |
| 2026-05-06 08:57 | 53.14277 | -2.19523 | 11299 ft | 356 kts | 172° |
| 2026-05-06 08:57 | 53.11834 | -2.18486 | 11902 ft | 368 kts | 162° |
| 2026-05-06 08:57 | 53.09418 | -2.16979 | 12714 ft | 373 kts | 158° |
| 2026-05-06 08:57 | 53.07019 | -2.15258 | 13560 ft | 378 kts | 157° |
| 2026-05-06 08:58 | 53.04608 | -2.13457 | 14306 ft | 382 kts | 157° |
| 2026-05-06 08:58 | 53.02170 | -2.11646 | 15062 ft | 386 kts | 157° |